sensor_id;sensor_type;location;lat;lon;timestamp;temperature;humidity
21001;DHT22;10658;50.920;12.238;2023-07-02T00:02:34;17.10;99.90
21001;DHT22;10658;50.920;12.238;2023-07-02T00:06:35;17.10;99.90
21001;DHT22;10658;50.920;12.238;2023-07-02T00:10:40;17.10;99.90
21001;DHT22;10658;50.920;12.238;2023-07-02T00:14:41;17.10;99.90
21001;DHT22;10658;50.920;12.238;2023-07-02T00:18:42;17.20;99.90
21001;DHT22;10658;50.920;12.238;2023-07-02T00:22:42;17.20;99.90
21001;DHT22;10658;50.920;12.238;2023-07-02T00:26:45;17.20;99.90
21001;DHT22;10658;50.920;12.238;2023-07-02T00:30:48;17.20;99.90
21001;DHT22;10658;50.920;12.238;2023-07-02T00:34:48;17.20;99.90
21001;DHT22;10658;50.920;12.238;2023-07-02T00:38:49;17.20;99.90
21001;DHT22;10658;50.920;12.238;2023-07-02T00:42:50;17.20;99.90
21001;DHT22;10658;50.920;12.238;2023-07-02T00:46:51;17.20;99.90
21001;DHT22;10658;50.920;12.238;2023-07-02T00:50:53;17.20;99.90
21001;DHT22;10658;50.920;12.238;2023-07-02T00:54:54;17.20;99.90
21001;DHT22;10658;50.920;12.238;2023-07-02T00:58:56;17.20;99.90
21001;DHT22;10658;50.920;12.238;2023-07-02T01:02:59;17.20;99.90
21001;DHT22;10658;50.920;12.238;2023-07-02T01:06:59;17.20;99.90
21001;DHT22;10658;50.920;12.238;2023-07-02T01:11:00;17.20;99.90
21001;DHT22;10658;50.920;12.238;2023-07-02T01:15:03;17.20;99.90
21001;DHT22;10658;50.920;12.238;2023-07-02T01:19:21;17.20;99.90
21001;DHT22;10658;50.920;12.238;2023-07-02T01:23:22;17.00;99.90
21001;DHT22;10658;50.920;12.238;2023-07-02T01:27:23;17.00;99.90
21001;DHT22;10658;50.920;12.238;2023-07-02T01:31:24;17.00;99.90
21001;DHT22;10658;50.920;12.238;2023-07-02T01:35:25;17.00;99.90
21001;DHT22;10658;50.920;12.238;2023-07-02T01:39:26;16.90;99.90
21001;DHT22;10658;50.920;12.238;2023-07-02T01:43:27;16.90;99.90
21001;DHT22;10658;50.920;12.238;2023-07-02T01:47:28;17.00;99.90
21001;DHT22;10658;50.920;12.238;2023-07-02T01:51:29;17.00;99.90
21001;DHT22;10658;50.920;12.238;2023-07-02T01:55:30;17.00;99.90
21001;DHT22;10658;50.920;12.238;2023-07-02T01:59:31;16.90;99.90
21001;DHT22;10658;50.920;12.238;2023-07-02T02:03:32;16.90;99.90
21001;DHT22;10658;50.920;12.238;2023-07-02T02:07:33;17.00;99.90
21001;DHT22;10658;50.920;12.238;2023-07-02T02:11:40;17.00;99.90
21001;DHT22;10658;50.920;12.238;2023-07-02T02:15:41;17.10;99.90
21001;DHT22;10658;50.920;12.238;2023-07-02T02:19:42;17.00;99.90
21001;DHT22;10658;50.920;12.238;2023-07-02T02:23:43;17.00;99.90
21001;DHT22;10658;50.920;12.238;2023-07-02T02:27:43;17.10;99.90
21001;DHT22;10658;50.920;12.238;2023-07-02T02:31:44;17.00;99.90
21001;DHT22;10658;50.920;12.238;2023-07-02T02:35:45;17.10;99.90
21001;DHT22;10658;50.920;12.238;2023-07-02T02:39:48;17.10;99.90
21001;DHT22;10658;50.920;12.238;2023-07-02T02:43:49;17.10;99.90
21001;DHT22;10658;50.920;12.238;2023-07-02T02:47:52;17.10;99.90
21001;DHT22;10658;50.920;12.238;2023-07-02T02:51:53;17.10;99.90
21001;DHT22;10658;50.920;12.238;2023-07-02T02:55:54;17.10;99.90
21001;DHT22;10658;50.920;12.238;2023-07-02T02:59:54;17.10;99.90
21001;DHT22;10658;50.920;12.238;2023-07-02T03:03:57;17.10;99.90
21001;DHT22;10658;50.920;12.238;2023-07-02T03:07:58;17.10;99.90
21001;DHT22;10658;50.920;12.238;2023-07-02T03:11:59;17.00;99.90
21001;DHT22;10658;50.920;12.238;2023-07-02T03:16:00;16.90;99.90
21001;DHT22;10658;50.920;12.238;2023-07-02T03:20:01;16.90;99.90
21001;DHT22;10658;50.920;12.238;2023-07-02T03:24:04;16.80;99.90
21001;DHT22;10658;50.920;12.238;2023-07-02T03:28:05;16.80;99.90
21001;DHT22;10658;50.920;12.238;2023-07-02T03:32:06;16.80;99.90
21001;DHT22;10658;50.920;12.238;2023-07-02T03:36:07;16.70;99.90
21001;DHT22;10658;50.920;12.238;2023-07-02T03:40:08;16.70;99.90
21001;DHT22;10658;50.920;12.238;2023-07-02T03:44:09;16.70;99.90
21001;DHT22;10658;50.920;12.238;2023-07-02T03:48:09;16.80;99.90
21001;DHT22;10658;50.920;12.238;2023-07-02T03:52:10;16.70;99.90
21001;DHT22;10658;50.920;12.238;2023-07-02T03:56:11;16.70;99.90
21001;DHT22;10658;50.920;12.238;2023-07-02T04:00:12;16.70;99.90
21001;DHT22;10658;50.920;12.238;2023-07-02T04:04:15;16.60;99.90
21001;DHT22;10658;50.920;12.238;2023-07-02T04:08:16;16.60;99.90
21001;DHT22;10658;50.920;12.238;2023-07-02T04:12:17;16.70;99.90
21001;DHT22;10658;50.920;12.238;2023-07-02T04:16:18;16.70;99.90
21001;DHT22;10658;50.920;12.238;2023-07-02T04:20:19;16.70;99.90
21001;DHT22;10658;50.920;12.238;2023-07-02T04:24:20;16.80;99.90
21001;DHT22;10658;50.920;12.238;2023-07-02T04:28:21;16.80;99.90
21001;DHT22;10658;50.920;12.238;2023-07-02T04:32:22;16.80;99.90
21001;DHT22;10658;50.920;12.238;2023-07-02T04:36:22;16.80;99.90
21001;DHT22;10658;50.920;12.238;2023-07-02T04:40:23;16.80;99.90
21001;DHT22;10658;50.920;12.238;2023-07-02T04:44:24;16.90;99.90
21001;DHT22;10658;50.920;12.238;2023-07-02T04:48:33;16.90;99.90
21001;DHT22;10658;50.920;12.238;2023-07-02T04:52:34;16.90;99.90
21001;DHT22;10658;50.920;12.238;2023-07-02T04:56:35;17.00;99.90
21001;DHT22;10658;50.920;12.238;2023-07-02T05:00:36;17.10;99.90
21001;DHT22;10658;50.920;12.238;2023-07-02T05:04:37;17.00;99.90
21001;DHT22;10658;50.920;12.238;2023-07-02T05:08:40;17.00;99.90
21001;DHT22;10658;50.920;12.238;2023-07-02T05:12:41;17.10;99.90
21001;DHT22;10658;50.920;12.238;2023-07-02T05:16:41;17.30;99.90
21001;DHT22;10658;50.920;12.238;2023-07-02T05:20:42;17.40;99.90
21001;DHT22;10658;50.920;12.238;2023-07-02T05:24:43;17.50;99.90
21001;DHT22;10658;50.920;12.238;2023-07-02T05:28:44;17.60;99.90
21001;DHT22;10658;50.920;12.238;2023-07-02T05:32:45;17.60;99.90
21001;DHT22;10658;50.920;12.238;2023-07-02T05:36:46;17.70;99.90
21001;DHT22;10658;50.920;12.238;2023-07-02T05:40:47;17.80;99.90
21001;DHT22;10658;50.920;12.238;2023-07-02T05:44:48;17.90;99.90
21001;DHT22;10658;50.920;12.238;2023-07-02T05:48:48;18.00;99.90
21001;DHT22;10658;50.920;12.238;2023-07-02T05:52:49;17.90;99.90
21001;DHT22;10658;50.920;12.238;2023-07-02T05:56:50;17.90;99.90
21001;DHT22;10658;50.920;12.238;2023-07-02T06:00:50;18.00;99.90
21001;DHT22;10658;50.920;12.238;2023-07-02T06:04:52;18.10;99.90
21001;DHT22;10658;50.920;12.238;2023-07-02T06:08:52;18.30;99.90
21001;DHT22;10658;50.920;12.238;2023-07-02T06:12:53;18.90;99.90
21001;DHT22;10658;50.920;12.238;2023-07-02T06:16:54;19.00;99.90
21001;DHT22;10658;50.920;12.238;2023-07-02T06:20:57;19.10;99.90
21001;DHT22;10658;50.920;12.238;2023-07-02T06:24:58;19.10;99.90
21001;DHT22;10658;50.920;12.238;2023-07-02T06:28:59;19.10;99.90
21001;DHT22;10658;50.920;12.238;2023-07-02T06:33:00;19.10;99.90
21001;DHT22;10658;50.920;12.238;2023-07-02T06:37:00;19.30;99.90
21001;DHT22;10658;50.920;12.238;2023-07-02T06:41:01;19.50;99.90
21001;DHT22;10658;50.920;12.238;2023-07-02T06:45:03;19.50;99.90
21001;DHT22;10658;50.920;12.238;2023-07-02T06:49:04;19.30;99.90
21001;DHT22;10658;50.920;12.238;2023-07-02T06:53:04;19.10;99.90
21001;DHT22;10658;50.920;12.238;2023-07-02T06:57:05;19.10;99.90
21001;DHT22;10658;50.920;12.238;2023-07-02T07:01:06;19.20;99.90
21001;DHT22;10658;50.920;12.238;2023-07-02T07:05:08;19.30;99.90
21001;DHT22;10658;50.920;12.238;2023-07-02T07:09:10;19.40;99.90
21001;DHT22;10658;50.920;12.238;2023-07-02T07:13:11;19.50;99.90
21001;DHT22;10658;50.920;12.238;2023-07-02T07:17:12;19.40;99.90
21001;DHT22;10658;50.920;12.238;2023-07-02T07:21:13;19.70;99.90
21001;DHT22;10658;50.920;12.238;2023-07-02T07:25:14;20.20;99.90
21001;DHT22;10658;50.920;12.238;2023-07-02T07:29:15;20.50;99.90
21001;DHT22;10658;50.920;12.238;2023-07-02T07:33:15;20.30;99.90
21001;DHT22;10658;50.920;12.238;2023-07-02T07:37:16;20.70;99.90
21001;DHT22;10658;50.920;12.238;2023-07-02T07:41:17;21.20;99.90
21001;DHT22;10658;50.920;12.238;2023-07-02T07:45:18;21.20;99.90
21001;DHT22;10658;50.920;12.238;2023-07-02T07:49:18;21.60;99.90
21001;DHT22;10658;50.920;12.238;2023-07-02T07:53:19;21.70;99.90
21001;DHT22;10658;50.920;12.238;2023-07-02T07:57:20;22.10;99.90
21001;DHT22;10658;50.920;12.238;2023-07-02T08:01:21;22.10;99.90
21001;DHT22;10658;50.920;12.238;2023-07-02T08:05:22;22.10;99.90
21001;DHT22;10658;50.920;12.238;2023-07-02T08:09:24;22.60;99.90
21001;DHT22;10658;50.920;12.238;2023-07-02T08:13:25;22.30;99.90
21001;DHT22;10658;50.920;12.238;2023-07-02T08:17:25;22.50;99.90
21001;DHT22;10658;50.920;12.238;2023-07-02T08:21:26;22.60;99.90
21001;DHT22;10658;50.920;12.238;2023-07-02T08:25:27;22.50;99.90
21001;DHT22;10658;50.920;12.238;2023-07-02T08:29:32;22.30;99.90
21001;DHT22;10658;50.920;12.238;2023-07-02T08:33:33;22.60;99.90
21001;DHT22;10658;50.920;12.238;2023-07-02T08:37:34;22.60;99.90
21001;DHT22;10658;50.920;12.238;2023-07-02T08:41:45;22.50;99.90
21001;DHT22;10658;50.920;12.238;2023-07-02T08:45:47;21.90;99.90
21001;DHT22;10658;50.920;12.238;2023-07-02T08:49:48;22.00;99.90
21001;DHT22;10658;50.920;12.238;2023-07-02T08:53:49;22.20;99.90
21001;DHT22;10658;50.920;12.238;2023-07-02T08:57:53;21.80;99.90
21001;DHT22;10658;50.920;12.238;2023-07-02T09:01:54;21.80;99.90
21001;DHT22;10658;50.920;12.238;2023-07-02T09:05:55;22.20;99.90
21001;DHT22;10658;50.920;12.238;2023-07-02T09:09:57;22.70;99.90
21001;DHT22;10658;50.920;12.238;2023-07-02T09:13:58;22.40;99.90
21001;DHT22;10658;50.920;12.238;2023-07-02T09:18:01;22.00;99.90
21001;DHT22;10658;50.920;12.238;2023-07-02T09:22:03;21.80;99.90
21001;DHT22;10658;50.920;12.238;2023-07-02T09:26:04;21.40;99.90
21001;DHT22;10658;50.920;12.238;2023-07-02T09:30:13;21.80;99.90
21001;DHT22;10658;50.920;12.238;2023-07-02T09:34:16;22.40;99.90
21001;DHT22;10658;50.920;12.238;2023-07-02T09:38:18;22.90;99.90
21001;DHT22;10658;50.920;12.238;2023-07-02T09:42:19;23.40;99.90
21001;DHT22;10658;50.920;12.238;2023-07-02T09:46:20;23.50;99.90
21001;DHT22;10658;50.920;12.238;2023-07-02T09:50:22;24.00;99.90
21001;DHT22;10658;50.920;12.238;2023-07-02T09:54:23;23.10;99.90
21001;DHT22;10658;50.920;12.238;2023-07-02T09:58:24;22.60;99.90
21001;DHT22;10658;50.920;12.238;2023-07-02T10:02:24;22.70;99.90
21001;DHT22;10658;50.920;12.238;2023-07-02T10:06:25;23.40;99.90
21001;DHT22;10658;50.920;12.238;2023-07-02T10:44:45;23.10;99.90
21001;DHT22;10658;50.920;12.238;2023-07-02T10:48:56;22.60;99.90
21001;DHT22;10658;50.920;12.238;2023-07-02T10:52:57;22.40;99.90
21001;DHT22;10658;50.920;12.238;2023-07-02T10:56:58;22.80;99.90
21001;DHT22;10658;50.920;12.238;2023-07-02T11:00:59;22.60;99.90
21001;DHT22;10658;50.920;12.238;2023-07-02T11:17:49;24.00;99.90
21001;DHT22;10658;50.920;12.238;2023-07-02T11:21:52;23.30;99.90
21001;DHT22;10658;50.920;12.238;2023-07-02T11:26:03;22.90;99.90
21001;DHT22;10658;50.920;12.238;2023-07-02T11:30:04;22.40;99.90
21001;DHT22;10658;50.920;12.238;2023-07-02T11:34:13;21.80;99.90
21001;DHT22;10658;50.920;12.238;2023-07-02T11:38:14;21.60;99.90
21001;DHT22;10658;50.920;12.238;2023-07-02T11:42:14;21.50;99.90
21001;DHT22;10658;50.920;12.238;2023-07-02T11:46:15;21.60;99.90
21001;DHT22;10658;50.920;12.238;2023-07-02T11:50:16;22.50;99.90
21001;DHT22;10658;50.920;12.238;2023-07-02T11:54:18;23.20;99.90
21001;DHT22;10658;50.920;12.238;2023-07-02T11:58:19;23.30;99.90
21001;DHT22;10658;50.920;12.238;2023-07-02T12:02:20;22.60;99.90
21001;DHT22;10658;50.920;12.238;2023-07-02T12:06:20;22.50;99.90
21001;DHT22;10658;50.920;12.238;2023-07-02T12:10:21;22.50;99.90
21001;DHT22;10658;50.920;12.238;2023-07-02T12:14:22;22.30;99.90
21001;DHT22;10658;50.920;12.238;2023-07-02T12:18:23;22.70;99.90
21001;DHT22;10658;50.920;12.238;2023-07-02T12:22:23;23.20;99.90
21001;DHT22;10658;50.920;12.238;2023-07-02T12:26:24;23.40;99.90
21001;DHT22;10658;50.920;12.238;2023-07-02T12:30:25;23.60;99.90
21001;DHT22;10658;50.920;12.238;2023-07-02T12:34:26;23.20;99.90
21001;DHT22;10658;50.920;12.238;2023-07-02T12:38:27;22.90;99.90
21001;DHT22;10658;50.920;12.238;2023-07-02T12:42:28;23.00;99.90
21001;DHT22;10658;50.920;12.238;2023-07-02T12:46:28;24.10;99.90
21001;DHT22;10658;50.920;12.238;2023-07-02T12:50:29;24.30;99.90
21001;DHT22;10658;50.920;12.238;2023-07-02T12:54:30;24.00;99.90
21001;DHT22;10658;50.920;12.238;2023-07-02T12:58:30;23.30;99.90
21001;DHT22;10658;50.920;12.238;2023-07-02T13:02:31;22.70;99.90
21001;DHT22;10658;50.920;12.238;2023-07-02T13:06:32;23.00;99.90
21001;DHT22;10658;50.920;12.238;2023-07-02T13:10:35;23.90;99.90
21001;DHT22;10658;50.920;12.238;2023-07-02T13:14:36;24.00;99.90
21001;DHT22;10658;50.920;12.238;2023-07-02T13:18:37;23.30;99.90
21001;DHT22;10658;50.920;12.238;2023-07-02T13:22:37;22.50;99.90
21001;DHT22;10658;50.920;12.238;2023-07-02T13:26:38;22.30;99.90
21001;DHT22;10658;50.920;12.238;2023-07-02T13:30:39;22.40;99.90
21001;DHT22;10658;50.920;12.238;2023-07-02T13:34:39;22.60;99.90
21001;DHT22;10658;50.920;12.238;2023-07-02T13:38:40;23.10;99.90
21001;DHT22;10658;50.920;12.238;2023-07-02T13:42:42;23.40;99.90
21001;DHT22;10658;50.920;12.238;2023-07-02T13:46:44;23.70;99.90
21001;DHT22;10658;50.920;12.238;2023-07-02T13:50:46;23.50;99.90
21001;DHT22;10658;50.920;12.238;2023-07-02T13:54:47;23.40;99.90
21001;DHT22;10658;50.920;12.238;2023-07-02T14:02:58;24.10;99.90
21001;DHT22;10658;50.920;12.238;2023-07-02T14:06:59;24.50;99.90
21001;DHT22;10658;50.920;12.238;2023-07-02T14:11:00;24.50;99.90
21001;DHT22;10658;50.920;12.238;2023-07-02T14:15:00;24.70;99.90
21001;DHT22;10658;50.920;12.238;2023-07-02T14:19:01;24.60;99.90
21001;DHT22;10658;50.920;12.238;2023-07-02T14:23:02;24.80;99.90
21001;DHT22;10658;50.920;12.238;2023-07-02T14:27:03;24.80;99.90
21001;DHT22;10658;50.920;12.238;2023-07-02T14:31:05;24.10;99.90
21001;DHT22;10658;50.920;12.238;2023-07-02T14:35:06;23.40;99.90
21001;DHT22;10658;50.920;12.238;2023-07-02T14:39:07;22.90;99.90
21001;DHT22;10658;50.920;12.238;2023-07-02T14:43:08;22.80;99.90
21001;DHT22;10658;50.920;12.238;2023-07-02T14:47:09;22.90;99.90
21001;DHT22;10658;50.920;12.238;2023-07-02T14:51:09;23.30;99.90
21001;DHT22;10658;50.920;12.238;2023-07-02T14:55:10;23.80;99.90
21001;DHT22;10658;50.920;12.238;2023-07-02T14:59:11;24.10;99.90
21001;DHT22;10658;50.920;12.238;2023-07-02T15:03:14;23.80;99.90
21001;DHT22;10658;50.920;12.238;2023-07-02T15:07:15;23.50;99.90
21001;DHT22;10658;50.920;12.238;2023-07-02T15:11:18;23.20;99.90
21001;DHT22;10658;50.920;12.238;2023-07-02T15:15:19;23.80;99.90
21001;DHT22;10658;50.920;12.238;2023-07-02T15:19:20;23.70;99.90
21001;DHT22;10658;50.920;12.238;2023-07-02T15:23:21;23.90;99.90
21001;DHT22;10658;50.920;12.238;2023-07-02T15:27:22;24.00;99.90
21001;DHT22;10658;50.920;12.238;2023-07-02T15:31:23;24.40;99.90
21001;DHT22;10658;50.920;12.238;2023-07-02T15:35:24;24.10;99.90
21001;DHT22;10658;50.920;12.238;2023-07-02T15:39:25;23.60;99.90
21001;DHT22;10658;50.920;12.238;2023-07-02T15:43:32;23.50;99.90
21001;DHT22;10658;50.920;12.238;2023-07-02T15:47:33;23.30;99.90
21001;DHT22;10658;50.920;12.238;2023-07-02T15:51:34;23.50;99.90
21001;DHT22;10658;50.920;12.238;2023-07-02T15:55:37;23.60;99.90
21001;DHT22;10658;50.920;12.238;2023-07-02T15:59:38;23.30;99.90
21001;DHT22;10658;50.920;12.238;2023-07-02T16:03:39;23.00;99.90
21001;DHT22;10658;50.920;12.238;2023-07-02T16:07:39;22.70;99.90
21001;DHT22;10658;50.920;12.238;2023-07-02T16:11:40;22.40;99.90
21001;DHT22;10658;50.920;12.238;2023-07-02T16:15:44;22.40;99.90
21001;DHT22;10658;50.920;12.238;2023-07-02T16:19:44;22.30;99.90
21001;DHT22;10658;50.920;12.238;2023-07-02T16:23:45;22.30;99.90
21001;DHT22;10658;50.920;12.238;2023-07-02T16:27:46;22.30;99.90
21001;DHT22;10658;50.920;12.238;2023-07-02T16:31:49;22.20;99.90
21001;DHT22;10658;50.920;12.238;2023-07-02T16:35:50;22.20;99.90
21001;DHT22;10658;50.920;12.238;2023-07-02T16:39:51;22.20;99.90
21001;DHT22;10658;50.920;12.238;2023-07-02T16:43:52;22.30;99.90
21001;DHT22;10658;50.920;12.238;2023-07-02T16:47:52;22.50;99.90
21001;DHT22;10658;50.920;12.238;2023-07-02T16:51:54;22.60;99.90
21001;DHT22;10658;50.920;12.238;2023-07-02T16:56:04;22.80;99.90
21001;DHT22;10658;50.920;12.238;2023-07-02T17:00:05;22.70;99.90
21001;DHT22;10658;50.920;12.238;2023-07-02T17:04:06;22.30;99.90
21001;DHT22;10658;50.920;12.238;2023-07-02T17:08:07;22.30;99.90
21001;DHT22;10658;50.920;12.238;2023-07-02T17:12:13;22.40;99.90
21001;DHT22;10658;50.920;12.238;2023-07-02T17:16:17;22.50;99.90
21001;DHT22;10658;50.920;12.238;2023-07-02T17:20:17;22.40;99.90
21001;DHT22;10658;50.920;12.238;2023-07-02T17:24:21;22.20;99.90
21001;DHT22;10658;50.920;12.238;2023-07-02T17:28:22;22.10;99.90
21001;DHT22;10658;50.920;12.238;2023-07-02T17:32:24;22.00;99.90
21001;DHT22;10658;50.920;12.238;2023-07-02T17:36:26;21.90;99.90
21001;DHT22;10658;50.920;12.238;2023-07-02T17:40:27;21.80;99.90
21001;DHT22;10658;50.920;12.238;2023-07-02T17:44:39;21.70;99.90
21001;DHT22;10658;50.920;12.238;2023-07-02T17:48:40;21.70;99.90
21001;DHT22;10658;50.920;12.238;2023-07-02T17:52:41;21.50;99.90
21001;DHT22;10658;50.920;12.238;2023-07-02T17:56:44;21.30;99.90
21001;DHT22;10658;50.920;12.238;2023-07-02T18:00:48;21.20;99.90
21001;DHT22;10658;50.920;12.238;2023-07-02T18:04:48;21.00;99.90
21001;DHT22;10658;50.920;12.238;2023-07-02T18:08:49;20.90;99.90
21001;DHT22;10658;50.920;12.238;2023-07-02T18:12:50;21.10;99.90
21001;DHT22;10658;50.920;12.238;2023-07-02T18:16:54;21.20;99.90
21001;DHT22;10658;50.920;12.238;2023-07-02T18:20:55;21.20;99.90
21001;DHT22;10658;50.920;12.238;2023-07-02T18:24:56;21.10;99.90
21001;DHT22;10658;50.920;12.238;2023-07-02T18:28:58;21.10;99.90
21001;DHT22;10658;50.920;12.238;2023-07-02T18:32:59;21.00;99.90
21001;DHT22;10658;50.920;12.238;2023-07-02T18:37:01;20.90;99.90
21001;DHT22;10658;50.920;12.238;2023-07-02T18:41:10;20.90;99.90
21001;DHT22;10658;50.920;12.238;2023-07-02T18:45:11;20.80;99.90
21001;DHT22;10658;50.920;12.238;2023-07-02T18:49:12;20.70;99.90
21001;DHT22;10658;50.920;12.238;2023-07-02T18:53:13;20.70;99.90
21001;DHT22;10658;50.920;12.238;2023-07-02T18:57:14;20.50;99.90
21001;DHT22;10658;50.920;12.238;2023-07-02T19:01:15;20.50;99.90
21001;DHT22;10658;50.920;12.238;2023-07-02T19:05:18;20.40;99.90
21001;DHT22;10658;50.920;12.238;2023-07-02T19:09:18;20.30;99.90
21001;DHT22;10658;50.920;12.238;2023-07-02T19:13:19;20.30;99.90
21001;DHT22;10658;50.920;12.238;2023-07-02T19:17:21;20.30;99.90
21001;DHT22;10658;50.920;12.238;2023-07-02T19:21:22;20.10;99.90
21001;DHT22;10658;50.920;12.238;2023-07-02T19:25:23;20.10;99.90
21001;DHT22;10658;50.920;12.238;2023-07-02T19:29:25;20.10;99.90
21001;DHT22;10658;50.920;12.238;2023-07-02T19:33:27;19.90;99.90
21001;DHT22;10658;50.920;12.238;2023-07-02T19:37:28;19.90;99.90
21001;DHT22;10658;50.920;12.238;2023-07-02T19:41:29;19.80;99.90
21001;DHT22;10658;50.920;12.238;2023-07-02T19:45:30;19.80;99.90
21001;DHT22;10658;50.920;12.238;2023-07-02T19:49:31;19.80;99.90
21001;DHT22;10658;50.920;12.238;2023-07-02T19:53:33;19.70;99.90
21001;DHT22;10658;50.920;12.238;2023-07-02T19:57:34;19.70;99.90
21001;DHT22;10658;50.920;12.238;2023-07-02T20:01:38;19.50;99.90
21001;DHT22;10658;50.920;12.238;2023-07-02T20:05:39;19.30;99.90
21001;DHT22;10658;50.920;12.238;2023-07-02T20:09:44;19.10;99.90
21001;DHT22;10658;50.920;12.238;2023-07-02T20:13:45;19.00;99.90
21001;DHT22;10658;50.920;12.238;2023-07-02T20:17:46;18.80;99.90
21001;DHT22;10658;50.920;12.238;2023-07-02T20:21:47;18.60;99.90
21001;DHT22;10658;50.920;12.238;2023-07-02T20:25:48;18.50;99.90
21001;DHT22;10658;50.920;12.238;2023-07-02T20:29:50;18.50;99.90
21001;DHT22;10658;50.920;12.238;2023-07-02T20:33:54;18.40;99.90
21001;DHT22;10658;50.920;12.238;2023-07-02T20:37:55;18.40;99.90
21001;DHT22;10658;50.920;12.238;2023-07-02T20:41:56;18.40;99.90
21001;DHT22;10658;50.920;12.238;2023-07-02T20:45:57;18.30;99.90
21001;DHT22;10658;50.920;12.238;2023-07-02T20:49:58;18.20;99.90
21001;DHT22;10658;50.920;12.238;2023-07-02T20:53:58;18.00;99.90
21001;DHT22;10658;50.920;12.238;2023-07-02T20:57:59;18.10;99.90
21001;DHT22;10658;50.920;12.238;2023-07-02T21:02:00;18.10;99.90
21001;DHT22;10658;50.920;12.238;2023-07-02T21:06:08;18.10;99.90
21001;DHT22;10658;50.920;12.238;2023-07-02T21:10:09;18.00;99.90
21001;DHT22;10658;50.920;12.238;2023-07-02T21:14:11;18.00;99.90
21001;DHT22;10658;50.920;12.238;2023-07-02T21:18:12;18.00;99.90
21001;DHT22;10658;50.920;12.238;2023-07-02T21:22:13;17.90;99.90
21001;DHT22;10658;50.920;12.238;2023-07-02T21:26:13;17.80;99.90
21001;DHT22;10658;50.920;12.238;2023-07-02T21:30:14;17.80;99.90
21001;DHT22;10658;50.920;12.238;2023-07-02T21:34:15;17.70;99.90
21001;DHT22;10658;50.920;12.238;2023-07-02T21:38:16;17.60;99.90
21001;DHT22;10658;50.920;12.238;2023-07-02T21:42:17;17.60;99.90
21001;DHT22;10658;50.920;12.238;2023-07-02T21:46:18;17.60;99.90
21001;DHT22;10658;50.920;12.238;2023-07-02T21:50:19;17.50;99.90
21001;DHT22;10658;50.920;12.238;2023-07-02T21:54:19;17.30;99.90
21001;DHT22;10658;50.920;12.238;2023-07-02T21:58:21;17.30;99.90
21001;DHT22;10658;50.920;12.238;2023-07-02T22:02:22;17.20;99.90
21001;DHT22;10658;50.920;12.238;2023-07-02T22:06:22;17.10;99.90
21001;DHT22;10658;50.920;12.238;2023-07-02T22:10:23;17.10;99.90
21001;DHT22;10658;50.920;12.238;2023-07-02T22:14:24;17.10;99.90
21001;DHT22;10658;50.920;12.238;2023-07-02T22:18:25;17.00;99.90
21001;DHT22;10658;50.920;12.238;2023-07-02T22:22:26;17.10;99.90
21001;DHT22;10658;50.920;12.238;2023-07-02T22:26:27;17.00;99.90
21001;DHT22;10658;50.920;12.238;2023-07-02T22:30:28;17.00;99.90
21001;DHT22;10658;50.920;12.238;2023-07-02T22:34:28;17.00;99.90
21001;DHT22;10658;50.920;12.238;2023-07-02T22:38:31;17.10;99.90
21001;DHT22;10658;50.920;12.238;2023-07-02T22:42:32;17.10;99.90
21001;DHT22;10658;50.920;12.238;2023-07-02T22:46:33;17.10;99.90
21001;DHT22;10658;50.920;12.238;2023-07-02T22:50:33;17.00;99.90
21001;DHT22;10658;50.920;12.238;2023-07-02T22:54:35;17.00;99.90
21001;DHT22;10658;50.920;12.238;2023-07-02T22:58:36;16.90;99.90
21001;DHT22;10658;50.920;12.238;2023-07-02T23:02:37;17.00;99.90
21001;DHT22;10658;50.920;12.238;2023-07-02T23:06:39;16.90;99.90
21001;DHT22;10658;50.920;12.238;2023-07-02T23:10:40;16.90;99.90
21001;DHT22;10658;50.920;12.238;2023-07-02T23:14:41;16.90;99.90
21001;DHT22;10658;50.920;12.238;2023-07-02T23:18:41;17.00;99.90
21001;DHT22;10658;50.920;12.238;2023-07-02T23:22:43;17.00;99.90
21001;DHT22;10658;50.920;12.238;2023-07-02T23:26:43;17.00;99.90
21001;DHT22;10658;50.920;12.238;2023-07-02T23:30:44;17.00;99.90
21001;DHT22;10658;50.920;12.238;2023-07-02T23:34:46;17.00;99.90
21001;DHT22;10658;50.920;12.238;2023-07-02T23:38:50;17.00;99.90
21001;DHT22;10658;50.920;12.238;2023-07-02T23:42:52;16.90;99.90
21001;DHT22;10658;50.920;12.238;2023-07-02T23:46:52;17.00;99.90
21001;DHT22;10658;50.920;12.238;2023-07-02T23:50:53;16.90;99.90
21001;DHT22;10658;50.920;12.238;2023-07-02T23:54:54;16.90;99.90
21001;DHT22;10658;50.920;12.238;2023-07-02T23:58:55;16.90;99.90
